Time;durP1;ratioP1;P1;durP2;ratioP2;P2;SDS_P1;SDS_P2;PMS_P1;PMS_P2;Temp;Humidity;BMP_temperature;BMP_pressure;BME280_temperature;BME280_humidity;BME280_pressure;Samples;Min_cycle;Max_cycle;Signal;HPM_P1;HPM_P2
2022/08/16 00:01:08;;;;;;;16.85;15.05;;;22.70;99.90;;;;;;4952817;29;20054;-47
2022/08/16 00:03:33;;;;;;;17.67;15.82;;;22.70;99.90;;;;;;4952955;29;20129;-47
2022/08/16 00:05:59;;;;;;;18.35;16.58;;;22.60;99.90;;;;;;4953012;28;20073;-47
2022/08/16 00:08:25;;;;;;;18.33;16.52;;;22.60;99.90;;;;;;4948045;29;20036;-46
2022/08/16 00:10:51;;;;;;;19.05;17.15;;;22.50;99.90;;;;;;4936982;28;20047;-46
2022/08/16 00:13:17;;;;;;;21.13;17.55;;;22.50;99.90;;;;;;4934209;29;20050;-46
2022/08/16 00:15:47;;;;;;;19.10;17.05;;;22.40;99.90;;;;;;4934508;29;20044;-49
2022/08/16 00:18:16;;;;;;;19.65;17.63;;;22.40;99.90;;;;;;4934536;28;20066;-45
2022/08/16 00:20:43;;;;;;;21.08;18.83;;;22.30;99.90;;;;;;4936706;29;20043;-51
2022/08/16 00:23:10;;;;;;;20.13;18.13;;;22.20;99.90;;;;;;4946338;28;20050;-45
2022/08/16 00:25:36;;;;;;;20.08;18.17;;;22.20;99.90;;;;;;4952545;28;20046;-47
2022/08/16 00:28:03;;;;;;;21.65;19.35;;;22.20;99.90;;;;;;4955434;28;20046;-48
2022/08/16 00:30:29;;;;;;;21.35;18.77;;;22.10;99.90;;;;;;4971481;28;20039;-50
2022/08/16 00:32:57;;;;;;;23.58;19.10;;;22.20;99.90;;;;;;4971956;28;20390;-47
2022/08/16 00:35:27;;;;;;;21.77;19.67;;;22.10;99.90;;;;;;4971613;28;20474;-49
2022/08/16 00:37:55;;;;;;;22.23;19.83;;;22.10;99.90;;;;;;4970323;28;20438;-48
2022/08/16 00:40:35;;;;;;;21.73;19.52;;;22.10;99.90;;;;;;4971539;28;20636;-45
2022/08/16 00:43:06;;;;;;;22.67;20.42;;;22.00;99.90;;;;;;4971525;28;20034;-48
2022/08/16 00:45:38;;;;;;;21.60;19.50;;;22.00;99.90;;;;;;4971146;28;20034;-49
2022/08/16 00:48:08;;;;;;;21.45;18.27;;;22.10;99.90;;;;;;4970534;28;20058;-48
2022/08/16 00:50:36;;;;;;;20.27;18.17;;;22.00;99.90;;;;;;4971312;28;20394;-51
2022/08/16 00:53:04;;;;;;;22.15;19.52;;;22.00;99.90;;;;;;4968905;28;20042;-48
2022/08/16 00:55:30;;;;;;;20.05;18.10;;;22.00;99.90;;;;;;4954138;28;20085;-46
2022/08/16 00:57:57;;;;;;;21.20;19.00;;;21.90;99.90;;;;;;4953342;28;20031;-48
2022/08/16 01:00:27;;;;;;;19.95;17.92;;;22.00;99.90;;;;;;4952183;28;20125;-47
2022/08/16 01:02:55;;;;;;;20.17;18.13;;;21.90;99.90;;;;;;4958012;28;21254;-49
2022/08/16 01:05:21;;;;;;;19.15;17.30;;;22.00;99.90;;;;;;4961604;28;20050;-50
2022/08/16 01:07:47;;;;;;;18.50;16.55;;;22.00;99.90;;;;;;4951680;28;20043;-47
2022/08/16 01:10:13;;;;;;;21.00;16.80;;;22.00;99.90;;;;;;4953282;28;20066;-48
2022/08/16 01:12:39;;;;;;;16.90;15.30;;;21.90;99.90;;;;;;4971124;28;20043;-46
2022/08/16 01:15:05;;;;;;;21.08;15.95;;;22.00;99.90;;;;;;4971539;28;20105;-47
2022/08/16 01:17:32;;;;;;;20.13;17.45;;;22.00;99.90;;;;;;4970826;28;20050;-47
2022/08/16 01:20:00;;;;;;;19.48;17.33;;;22.00;99.90;;;;;;4971293;28;20047;-48
2022/08/16 01:22:36;;;;;;;19.02;16.88;;;22.00;99.90;;;;;;4970918;28;20118;-45
2022/08/16 01:25:08;;;;;;;19.67;17.08;;;21.90;99.90;;;;;;4971183;28;20054;-47
2022/08/16 01:27:44;;;;;;;19.30;17.13;;;21.90;99.90;;;;;;4954159;28;20488;-48
2022/08/16 01:30:14;;;;;;;19.63;16.55;;;21.80;99.90;;;;;;4951958;28;20074;-47
2022/08/16 01:32:43;;;;;;;18.08;16.33;;;21.70;99.90;;;;;;4951506;28;20057;-47
2022/08/16 01:35:22;;;;;;;18.60;16.73;;;21.70;99.90;;;;;;4951566;28;20031;-48
2022/08/16 01:37:51;;;;;;;18.77;16.83;;;21.70;99.90;;;;;;4952650;28;20110;-47
2022/08/16 01:40:19;;;;;;;19.30;17.25;;;21.70;99.90;;;;;;4952493;28;20122;-47
2022/08/16 01:42:48;;;;;;;20.25;17.55;;;21.80;99.90;;;;;;4952205;28;20043;-47
2022/08/16 01:45:14;;;;;;;18.80;16.90;;;21.70;99.90;;;;;;4957960;28;20077;-48
2022/08/16 01:47:40;;;;;;;20.80;17.73;;;21.70;99.90;;;;;;4970566;28;20046;-45
2022/08/16 01:50:07;;;;;;;21.63;18.80;;;21.60;99.90;;;;;;4970757;28;20039;-48
2022/08/16 01:52:33;;;;;;;20.27;18.13;;;21.60;99.90;;;;;;4970684;28;20043;-47
2022/08/16 01:54:59;;;;;;;20.00;17.98;;;21.60;99.90;;;;;;4970904;28;20729;-49
2022/08/16 01:57:26;;;;;;;19.25;17.27;;;21.60;99.90;;;;;;4953131;28;20053;-48
2022/08/16 01:59:52;;;;;;;20.25;17.85;;;21.50;99.90;;;;;;4973064;28;20474;-48
2022/08/16 02:02:18;;;;;;;19.60;17.70;;;21.40;99.90;;;;;;4974452;28;20050;-47
2022/08/16 02:04:43;;;;;;;20.63;18.58;;;21.40;99.90;;;;;;4974334;28;20058;-47
2022/08/16 02:07:11;;;;;;;19.95;17.85;;;21.30;99.90;;;;;;4974503;28;20378;-47
2022/08/16 02:09:39;;;;;;;20.25;18.05;;;21.40;99.90;;;;;;4973991;28;20279;-46
2022/08/16 02:12:08;;;;;;;19.23;17.33;;;21.30;99.90;;;;;;4974242;28;20043;-49
2022/08/16 02:14:35;;;;;;;19.38;16.77;;;21.20;99.90;;;;;;4974458;28;20070;-47
2022/08/16 02:17:04;;;;;;;19.65;17.63;;;21.20;99.90;;;;;;4973704;28;20042;-47
2022/08/16 02:19:33;;;;;;;18.40;16.60;;;21.20;99.90;;;;;;4970949;28;20150;-48
2022/08/16 02:21:59;;;;;;;19.15;17.15;;;21.20;99.90;;;;;;4954922;28;20102;-45
2022/08/16 02:24:25;;;;;;;19.50;17.52;;;21.20;99.90;;;;;;4957384;28;20054;-47
2022/08/16 02:26:51;;;;;;;18.63;16.63;;;21.20;99.90;;;;;;4954531;28;20459;-47
2022/08/16 02:29:18;;;;;;;17.45;15.73;;;21.10;99.90;;;;;;4954444;28;20035;-47
2022/08/16 02:31:45;;;;;;;17.90;15.98;;;21.10;99.90;;;;;;4968137;28;20047;-47
2022/08/16 02:34:12;;;;;;;20.40;17.20;;;21.10;99.90;;;;;;4973577;28;20039;-49
2022/08/16 02:36:38;;;;;;;18.55;16.75;;;21.00;99.90;;;;;;4973917;28;20354;-47
2022/08/16 02:39:05;;;;;;;18.70;16.70;;;21.00;99.90;;;;;;4956311;28;20031;-48
2022/08/16 02:41:32;;;;;;;21.13;17.13;;;20.90;99.90;;;;;;4973749;28;20529;-49
2022/08/16 02:43:58;;;;;;;18.90;16.90;;;20.90;99.90;;;;;;4973557;28;20038;-49
2022/08/16 02:46:25;;;;;;;16.85;15.15;;;20.90;99.90;;;;;;4973339;28;20107;-47
2022/08/16 02:48:51;;;;;;;18.95;17.00;;;20.80;99.90;;;;;;4973476;28;20133;-49
2022/08/16 02:51:17;;;;;;;17.98;16.08;;;20.80;99.90;;;;;;4973284;28;20149;-48
2022/08/16 02:53:46;;;;;;;18.27;15.73;;;20.80;99.90;;;;;;4954307;28;20036;-47
2022/08/16 02:56:14;;;;;;;17.02;15.27;;;20.80;99.90;;;;;;4954304;28;20037;-48
2022/08/16 02:58:40;;;;;;;18.52;16.60;;;20.80;99.90;;;;;;4953939;28;20527;-48
2022/08/16 03:01:08;;;;;;;19.33;16.15;;;20.80;99.90;;;;;;4953803;28;20039;-45
2022/08/16 03:03:35;;;;;;;18.38;14.98;;;20.80;99.90;;;;;;4953894;28;20050;-47
2022/08/16 03:06:01;;;;;;;18.02;16.23;;;20.60;99.90;;;;;;4954098;28;20070;-49
2022/08/16 03:08:26;;;;;;;16.98;15.20;;;20.60;99.90;;;;;;4957553;28;20042;-45
2022/08/16 03:10:52;;;;;;;18.05;16.15;;;20.60;99.90;;;;;;4954421;28;20097;-48
2022/08/16 03:13:18;;;;;;;19.23;16.63;;;20.60;99.90;;;;;;4955470;28;20623;-47
2022/08/16 03:15:47;;;;;;;18.25;16.35;;;20.60;99.90;;;;;;4953821;28;20039;-48
2022/08/16 03:18:13;;;;;;;18.73;16.75;;;20.60;99.90;;;;;;4953866;28;20039;-46
2022/08/16 03:20:39;;;;;;;19.58;16.10;;;20.50;99.90;;;;;;4953837;28;20039;-48
2022/08/16 03:23:06;;;;;;;18.25;16.38;;;20.50;99.90;;;;;;4953247;28;20054;-49
2022/08/16 03:25:33;;;;;;;19.02;17.02;;;20.50;99.90;;;;;;4953558;28;20050;-46
2022/08/16 03:27:58;;;;;;;18.77;16.88;;;20.40;99.90;;;;;;4953728;28;20118;-48
2022/08/16 03:30:28;;;;;;;20.13;18.13;;;20.40;99.90;;;;;;4953600;28;20114;-47
2022/08/16 03:32:54;;;;;;;19.67;17.45;;;20.40;99.90;;;;;;4953348;28;20044;-47
2022/08/16 03:35:23;;;;;;;19.92;17.75;;;20.40;99.90;;;;;;4955191;28;20043;-48
2022/08/16 03:37:55;;;;;;;19.67;17.70;;;20.30;99.90;;;;;;4972628;28;20034;-48
2022/08/16 03:40:21;;;;;;;19.50;17.55;;;20.30;99.90;;;;;;4972692;28;20133;-48
2022/08/16 03:42:47;;;;;;;19.33;17.42;;;20.30;99.90;;;;;;4954526;28;20082;-46
2022/08/16 03:45:13;;;;;;;20.13;17.67;;;20.20;99.90;;;;;;4972251;28;20070;-48
2022/08/16 03:47:40;;;;;;;19.10;17.10;;;20.10;99.90;;;;;;4971265;28;20047;-47
2022/08/16 03:50:07;;;;;;;19.50;17.63;;;20.20;99.90;;;;;;4972492;28;20387;-47
2022/08/16 03:52:34;;;;;;;19.48;17.48;;;20.10;99.90;;;;;;4971875;28;20039;-51
2022/08/16 03:55:03;;;;;;;18.98;16.90;;;20.00;99.90;;;;;;4957653;28;20046;-49
2022/08/16 03:57:30;;;;;;;20.33;17.80;;;20.00;99.90;;;;;;4968768;28;20062;-50
2022/08/16 03:59:56;;;;;;;19.27;16.85;;;20.00;99.90;;;;;;4972105;28;20043;-47
2022/08/16 04:02:22;;;;;;;19.48;17.25;;;19.90;99.90;;;;;;4972209;28;20035;-48
2022/08/16 04:04:48;;;;;;;20.45;16.88;;;19.90;99.90;;;;;;4958946;28;20067;-47
2022/08/16 04:07:14;;;;;;;20.23;17.02;;;19.80;99.90;;;;;;4970398;28;20042;-49
2022/08/16 04:09:40;;;;;;;19.85;17.63;;;19.80;99.90;;;;;;4952806;28;20082;-48
2022/08/16 04:12:08;;;;;;;18.00;16.33;;;19.80;99.90;;;;;;4952961;28;20090;-49
2022/08/16 04:14:34;;;;;;;18.70;16.80;;;19.80;99.90;;;;;;4936530;28;20047;-49
2022/08/16 04:17:00;;;;;;;18.13;15.98;;;19.80;99.90;;;;;;4971893;28;20047;-45
2022/08/16 04:19:26;;;;;;;18.50;16.55;;;19.70;99.90;;;;;;4972042;28;20038;-49
2022/08/16 04:21:53;;;;;;;18.80;16.65;;;19.70;99.90;;;;;;4971594;28;20218;-47
2022/08/16 04:24:18;;;;;;;19.95;17.10;;;19.70;99.90;;;;;;4971651;28;20057;-47
2022/08/16 04:26:44;;;;;;;20.92;17.55;;;19.60;99.90;;;;;;4970697;28;20114;-47
2022/08/16 04:29:10;;;;;;;18.15;16.25;;;19.60;99.90;;;;;;4971578;28;20610;-46
2022/08/16 04:31:36;;;;;;;18.88;16.88;;;19.60;99.90;;;;;;4971086;28;20043;-46
2022/08/16 04:34:02;;;;;;;18.80;16.77;;;19.60;99.90;;;;;;4971831;28;20027;-48
2022/08/16 04:36:28;;;;;;;22.77;17.90;;;19.60;99.90;;;;;;4968269;28;20042;-50
2022/08/16 04:38:54;;;;;;;18.60;16.60;;;19.60;99.90;;;;;;4955805;28;20047;-47
2022/08/16 04:41:20;;;;;;;18.60;16.65;;;19.50;99.90;;;;;;4953082;28;20114;-50
2022/08/16 04:43:46;;;;;;;18.25;16.40;;;19.50;99.90;;;;;;4953491;28;20035;-49
2022/08/16 04:46:13;;;;;;;19.77;17.67;;;19.50;99.90;;;;;;4952432;28;20043;-48
2022/08/16 04:48:40;;;;;;;20.08;16.90;;;19.50;99.90;;;;;;4958411;28;20115;-48
2022/08/16 04:51:07;;;;;;;20.30;18.10;;;19.40;99.90;;;;;;4960752;28;20038;-48
2022/08/16 04:53:34;;;;;;;18.83;16.90;;;19.30;99.90;;;;;;4971426;28;20045;-49
2022/08/16 04:55:59;;;;;;;18.52;16.83;;;19.30;99.90;;;;;;4956980;28;20107;-48
2022/08/16 04:58:26;;;;;;;19.60;17.33;;;19.40;99.90;;;;;;4952679;28;20073;-48
2022/08/16 05:00:51;;;;;;;19.75;17.13;;;19.40;99.90;;;;;;4952220;28;20036;-49
2022/08/16 05:03:17;;;;;;;18.85;16.80;;;19.40;99.90;;;;;;4951845;28;20519;-49
2022/08/16 05:05:43;;;;;;;18.17;16.25;;;19.30;99.90;;;;;;4953058;28;20047;-49
2022/08/16 05:08:09;;;;;;;17.63;15.82;;;19.30;99.90;;;;;;4951938;28;20107;-47
2022/08/16 05:10:36;;;;;;;18.52;16.60;;;19.40;99.90;;;;;;4951839;28;20518;-49
2022/08/16 05:13:03;;;;;;;19.80;16.92;;;19.40;99.90;;;;;;4969677;28;20069;-48
2022/08/16 05:15:29;;;;;;;21.05;16.98;;;19.30;99.90;;;;;;4969794;28;20039;-47
2022/08/16 05:17:55;;;;;;;18.10;16.23;;;19.40;99.90;;;;;;4970631;28;20039;-45
2022/08/16 05:20:21;;;;;;;18.30;16.55;;;19.30;99.90;;;;;;4970174;28;20049;-49
2022/08/16 05:22:47;;;;;;;18.30;16.25;;;19.40;99.90;;;;;;4961725;28;20133;-49
2022/08/16 05:25:14;;;;;;;18.20;16.30;;;19.40;99.90;;;;;;4956353;28;20053;-47
2022/08/16 05:27:41;;;;;;;17.95;16.08;;;19.50;99.90;;;;;;4951848;28;20039;-47
2022/08/16 05:30:11;;;;;;;18.67;16.75;;;19.50;99.90;;;;;;4952213;28;20039;-45
2022/08/16 05:32:36;;;;;;;18.75;15.88;;;19.50;99.90;;;;;;4951722;28;20036;-47
2022/08/16 05:35:06;;;;;;;18.42;15.77;;;19.50;99.90;;;;;;4955686;28;20047;-49
2022/08/16 05:37:33;;;;;;;17.05;15.25;;;19.60;99.90;;;;;;4955748;28;20102;-47
2022/08/16 05:40:00;;;;;;;19.70;16.35;;;19.60;99.90;;;;;;4966093;28;20506;-45
2022/08/16 05:42:25;;;;;;;17.77;15.98;;;19.60;99.90;;;;;;4974388;28;20050;-50
2022/08/16 05:44:51;;;;;;;19.17;16.35;;;19.70;99.90;;;;;;4974935;28;20039;-49
2022/08/16 05:47:17;;;;;;;18.55;16.67;;;19.80;99.90;;;;;;4955680;28;20042;-47
2022/08/16 05:49:42;;;;;;;17.10;15.23;;;19.90;99.90;;;;;;4974679;28;20082;-48
2022/08/16 05:52:09;;;;;;;18.05;16.13;;;19.90;99.90;;;;;;4966713;28;20043;-48
2022/08/16 05:54:35;;;;;;;19.05;16.45;;;19.90;99.90;;;;;;4955382;28;20065;-48
2022/08/16 05:57:01;;;;;;;18.65;16.75;;;20.00;99.90;;;;;;4955333;28;20042;-48
2022/08/16 05:59:27;;;;;;;20.40;16.10;;;20.00;99.90;;;;;;4955324;28;20413;-46
2022/08/16 06:01:53;;;;;;;19.35;17.25;;;20.10;99.90;;;;;;4968099;28;20089;-48
2022/08/16 06:04:20;;;;;;;19.67;17.60;;;20.10;99.90;;;;;;4961579;28;20042;-50
2022/08/16 06:06:46;;;;;;;19.60;16.60;;;20.10;99.90;;;;;;4961710;28;20393;-49
2022/08/16 06:09:14;;;;;;;19.52;17.48;;;20.20;99.90;;;;;;4961132;28;20478;-47
2022/08/16 06:11:40;;;;;;;19.48;17.45;;;20.20;99.90;;;;;;4960195;28;20051;-51
2022/08/16 06:14:06;;;;;;;21.52;17.80;;;20.30;99.90;;;;;;4958347;28;20553;-50
2022/08/16 06:16:32;;;;;;;20.45;18.10;;;20.50;99.90;;;;;;4955871;28;20038;-49
2022/08/16 06:18:58;;;;;;;19.95;17.30;;;20.50;99.90;;;;;;4958997;28;20034;-51
2022/08/16 06:21:24;;;;;;;19.48;17.38;;;20.60;99.90;;;;;;4958352;28;20074;-47
2022/08/16 06:23:50;;;;;;;21.10;17.85;;;20.70;99.90;;;;;;4959842;28;20114;-49
2022/08/16 06:26:16;;;;;;;20.52;18.50;;;20.90;99.90;;;;;;4962000;28;20047;-46
2022/08/16 06:28:41;;;;;;;21.08;18.55;;;20.90;99.90;;;;;;4965141;28;20108;-46
2022/08/16 06:31:12;;;;;;;20.20;18.20;;;21.10;99.90;;;;;;4957633;28;20039;-48
2022/08/16 06:33:38;;;;;;;22.75;20.00;;;21.10;99.90;;;;;;4961543;28;20066;-49
2022/08/16 06:36:08;;;;;;;20.38;18.17;;;21.10;99.90;;;;;;4962222;28;20047;-48
2022/08/16 06:38:34;;;;;;;20.95;18.88;;;21.20;99.90;;;;;;4961446;28;20173;-48
2022/08/16 06:41:06;;;;;;;22.48;20.10;;;21.30;99.90;;;;;;4958997;28;20035;-49
2022/08/16 06:43:32;;;;;;;23.15;20.70;;;21.40;99.90;;;;;;4958774;28;20058;-50
2022/08/16 06:46:00;;;;;;;22.38;19.85;;;21.30;99.90;;;;;;4962349;28;20484;-45
2022/08/16 06:48:26;;;;;;;22.92;20.63;;;21.50;99.90;;;;;;4956385;28;20042;-51
2022/08/16 06:50:51;;;;;;;24.65;22.05;;;21.50;99.90;;;;;;4960420;28;20039;-48
2022/08/16 06:53:18;;;;;;;27.70;23.30;;;21.60;99.90;;;;;;4961220;28;20054;-46
2022/08/16 06:55:44;;;;;;;28.05;24.20;;;21.70;99.90;;;;;;4962907;28;20526;-47
2022/08/16 06:58:10;;;;;;;29.23;23.85;;;21.70;99.90;;;;;;4959791;28;20428;-47
2022/08/16 07:00:37;;;;;;;27.95;24.95;;;21.80;99.90;;;;;;4956042;28;20074;-48
2022/08/16 07:03:04;;;;;;;28.80;25.75;;;21.90;99.90;;;;;;4955837;28;20043;-50
2022/08/16 07:05:30;;;;;;;28.85;25.88;;;21.90;99.90;;;;;;4965941;28;20487;-45
2022/08/16 07:07:56;;;;;;;28.40;25.40;;;21.90;99.90;;;;;;4956843;28;20039;-47
2022/08/16 07:10:23;;;;;;;32.55;27.23;;;22.00;99.90;;;;;;4961840;28;20054;-48
2022/08/16 07:12:49;;;;;;;29.27;25.92;;;22.00;99.90;;;;;;4960483;28;20051;-49
2022/08/16 07:15:17;;;;;;;28.90;25.83;;;22.00;99.90;;;;;;4960415;28;20615;-45
2022/08/16 07:17:43;;;;;;;32.30;27.10;;;22.00;99.90;;;;;;4956957;28;20058;-50
2022/08/16 07:20:11;;;;;;;29.52;25.60;;;22.00;99.90;;;;;;4955226;28;20046;-47
2022/08/16 07:22:38;;;;;;;29.50;26.40;;;22.00;99.90;;;;;;4956625;28;20122;-47
2022/08/16 07:25:10;;;;;;;29.25;26.08;;;21.90;99.90;;;;;;4954038;28;20050;-48
2022/08/16 07:27:37;;;;;;;28.15;24.52;;;21.90;99.90;;;;;;4962364;28;20047;-47
2022/08/16 07:30:06;;;;;;;27.48;24.60;;;21.90;99.90;;;;;;4959493;28;20057;-47
2022/08/16 07:32:31;;;;;;;28.27;25.15;;;22.00;99.90;;;;;;4958101;28;20472;-47
2022/08/16 07:34:58;;;;;;;29.05;25.20;;;22.10;99.90;;;;;;4951286;28;20036;-46
2022/08/16 07:37:24;;;;;;;28.92;25.73;;;22.10;99.90;;;;;;4955833;28;20039;-48
2022/08/16 07:39:50;;;;;;;29.02;24.45;;;22.20;99.90;;;;;;4956932;28;20035;-49
2022/08/16 07:42:15;;;;;;;27.20;24.25;;;22.30;99.90;;;;;;4952137;28;20042;-45
2022/08/16 07:44:41;;;;;;;29.10;24.63;;;22.30;99.90;;;;;;4951304;28;20058;-46
2022/08/16 07:47:07;;;;;;;25.40;22.70;;;22.30;99.90;;;;;;4934093;28;20043;-48
2022/08/16 07:49:32;;;;;;;29.15;24.77;;;22.40;99.90;;;;;;4951770;28;20751;-47
2022/08/16 07:51:58;;;;;;;27.30;24.50;;;22.40;99.90;;;;;;4957118;28;20042;-46
2022/08/16 07:54:24;;;;;;;27.10;24.20;;;22.50;99.90;;;;;;4970439;28;20038;-46
2022/08/16 07:56:49;;;;;;;26.00;23.23;;;22.50;99.90;;;;;;4969745;28;20070;-49
2022/08/16 07:59:15;;;;;;;27.65;24.35;;;22.60;99.90;;;;;;4969965;28;20030;-47
2022/08/16 08:01:41;;;;;;;28.13;22.45;;;22.60;99.90;;;;;;4970391;28;20057;-47
2022/08/16 08:04:12;;;;;;;25.13;22.45;;;22.70;99.90;;;;;;4970813;28;20077;-48
2022/08/16 08:06:38;;;;;;;26.65;23.95;;;22.80;99.90;;;;;;4952947;28;20058;-47
2022/08/16 08:09:04;;;;;;;24.10;21.70;;;22.90;99.90;;;;;;4970494;28;20039;-46
2022/08/16 08:11:30;;;;;;;22.98;20.55;;;22.90;99.90;;;;;;4970342;28;20562;-49
2022/08/16 08:14:01;;;;;;;23.45;20.98;;;22.90;99.90;;;;;;4970177;28;20038;-50
2022/08/16 08:16:27;;;;;;;24.85;21.35;;;23.00;99.90;;;;;;4968792;28;20129;-48
2022/08/16 08:18:56;;;;;;;23.70;21.17;;;23.00;99.90;;;;;;4969669;28;20391;-49
2022/08/16 08:21:23;;;;;;;26.27;23.40;;;23.00;99.90;;;;;;4962880;28;20069;-49
2022/08/16 08:23:49;;;;;;;25.00;22.40;;;23.10;99.90;;;;;;4964928;28;20093;-47
2022/08/16 08:26:16;;;;;;;24.63;22.08;;;23.00;99.90;;;;;;4960688;28;20047;-47
2022/08/16 08:28:42;;;;;;;24.52;21.95;;;23.00;99.90;;;;;;4958805;28;20182;-49
2022/08/16 08:31:08;;;;;;;23.55;21.25;;;23.10;99.90;;;;;;4956114;28;20038;-50
2022/08/16 08:33:34;;;;;;;26.73;21.67;;;23.20;99.90;;;;;;4958543;28;20078;-49
2022/08/16 08:36:03;;;;;;;24.08;21.38;;;23.20;99.90;;;;;;4950733;28;20035;-48
2022/08/16 08:38:29;;;;;;;25.45;22.42;;;23.30;99.90;;;;;;4950451;28;20479;-48
2022/08/16 08:40:55;;;;;;;24.65;22.15;;;23.50;99.90;;;;;;4950640;28;20031;-50
2022/08/16 08:43:21;;;;;;;24.15;21.70;;;23.60;99.90;;;;;;4950763;28;20046;-48
2022/08/16 08:45:47;;;;;;;22.90;19.80;;;23.60;99.90;;;;;;4951042;28;20447;-47
2022/08/16 08:48:13;;;;;;;20.40;18.30;;;23.70;99.90;;;;;;4950258;28;20039;-45
2022/08/16 08:50:41;;;;;;;21.88;18.38;;;23.70;99.90;;;;;;4950664;28;20039;-47
2022/08/16 08:53:07;;;;;;;21.45;19.17;;;23.70;99.90;;;;;;4951952;28;20049;-49
2022/08/16 08:55:34;;;;;;;21.38;18.95;;;23.80;99.90;;;;;;4952895;28;20059;-45
2022/08/16 08:57:59;;;;;;;19.38;17.33;;;23.90;99.90;;;;;;4968759;28;20066;-48
2022/08/16 09:00:27;;;;;;;18.63;15.88;;;24.00;99.90;;;;;;4969595;28;20038;-48
2022/08/16 09:02:53;;;;;;;18.02;16.20;;;24.10;99.90;;;;;;4969898;28;20112;-47
2022/08/16 09:05:21;;;;;;;18.40;15.20;;;24.10;99.90;;;;;;4969976;28;20054;-49
2022/08/16 09:07:47;;;;;;;18.20;15.55;;;24.30;99.90;;;;;;4968361;28;20058;-49
2022/08/16 09:10:13;;;;;;;19.00;15.35;;;24.40;99.90;;;;;;4952557;28;20043;-46
2022/08/16 09:12:39;;;;;;;19.55;15.73;;;24.60;99.90;;;;;;4951561;28;20426;-49
2022/08/16 09:15:07;;;;;;;20.92;16.88;;;24.80;99.90;;;;;;4951756;28;20031;-49
2022/08/16 09:17:32;;;;;;;18.58;16.70;;;25.00;99.90;;;;;;4953878;28;20031;-47
2022/08/16 09:19:58;;;;;;;19.20;17.20;;;25.10;99.90;;;;;;4969710;28;20042;-48
2022/08/16 09:22:27;;;;;;;20.42;16.67;;;25.00;99.90;;;;;;4969441;28;20045;-46
2022/08/16 09:24:53;;;;;;;20.67;17.25;;;25.10;99.90;;;;;;4967063;28;20070;-46
2022/08/16 09:27:20;;;;;;;17.05;13.95;;;25.20;99.90;;;;;;4950047;28;20042;-46
2022/08/16 09:29:45;;;;;;;16.33;13.45;;;25.60;99.90;;;;;;4964860;28;20054;-48
2022/08/16 09:32:11;;;;;;;13.23;11.75;;;25.50;98.70;;;;;;4950364;28;20055;-47
2022/08/16 09:34:37;;;;;;;13.68;10.85;;;25.60;99.10;;;;;;4950069;28;20411;-48
2022/08/16 09:37:03;;;;;;;12.80;10.45;;;25.60;98.60;;;;;;4950253;28;20035;-47
2022/08/16 09:39:28;;;;;;;11.10;9.30;;;25.80;96.60;;;;;;4932304;28;20442;-49
2022/08/16 09:41:57;;;;;;;14.98;9.18;;;25.70;96.10;;;;;;4942532;28;20035;-49
2022/08/16 09:44:24;;;;;;;12.50;8.32;;;25.80;96.00;;;;;;4968647;28;20046;-46
2022/08/16 09:46:51;;;;;;;10.57;7.65;;;26.00;95.00;;;;;;4968705;28;20045;-48
2022/08/16 09:49:17;;;;;;;16.55;8.35;;;26.00;95.60;;;;;;4951343;28;20070;-47
2022/08/16 09:51:43;;;;;;;14.40;8.25;;;26.10;96.20;;;;;;4950108;28;20051;-51
2022/08/16 09:54:09;;;;;;;9.20;6.55;;;26.20;94.10;;;;;;4958037;28;20399;-48
2022/08/16 09:56:37;;;;;;;11.90;7.32;;;26.20;93.80;;;;;;4951810;28;20431;-48
2022/08/16 09:59:05;;;;;;;9.52;7.05;;;26.30;93.60;;;;;;4936113;28;20384;-47
2022/08/16 10:01:32;;;;;;;13.15;8.48;;;26.40;93.60;;;;;;4954913;28;20047;-49
2022/08/16 10:03:58;;;;;;;9.90;7.70;;;26.20;93.40;;;;;;4960139;28;20046;-47
2022/08/16 10:06:25;;;;;;;9.23;6.43;;;26.50;94.30;;;;;;4961349;28;20051;-48
2022/08/16 10:08:51;;;;;;;11.98;5.90;;;26.50;92.30;;;;;;4961396;28;20130;-46
2022/08/16 10:14:03;;;;;;;8.50;5.18;;;26.60;92.00;;;;;;4962661;28;20077;-48
2022/08/16 10:16:29;;;;;;;9.45;6.60;;;26.60;92.50;;;;;;4945426;28;20470;-48
2022/08/16 10:18:54;;;;;;;9.23;5.50;;;26.70;91.70;;;;;;4958387;28;20039;-47
2022/08/16 10:21:21;;;;;;;9.40;4.70;;;26.80;91.20;;;;;;4966649;28;20454;-48
2022/08/16 10:23:48;;;;;;;14.18;5.47;;;26.90;91.60;;;;;;4962062;28;20081;-48
2022/08/16 10:26:14;;;;;;;7.78;3.95;;;26.90;90.90;;;;;;4962117;28;20051;-47
2022/08/16 10:28:40;;;;;;;6.28;3.70;;;27.00;89.70;;;;;;4963450;28;20043;-48
2022/08/16 10:31:09;;;;;;;10.43;3.95;;;27.10;87.80;;;;;;4967189;28;20043;-50
2022/08/16 10:33:35;;;;;;;7.55;3.40;;;27.10;87.80;;;;;;4964608;28;20450;-49
2022/08/16 10:36:05;;;;;;;6.40;3.45;;;27.40;90.50;;;;;;4959286;28;20142;-47
2022/08/16 10:38:32;;;;;;;5.55;3.15;;;27.40;87.80;;;;;;4961191;28;20105;-50
2022/08/16 10:40:58;;;;;;;6.20;3.25;;;27.40;87.30;;;;;;4956321;28;20035;-49
2022/08/16 10:43:23;;;;;;;5.95;3.25;;;27.50;87.10;;;;;;4964311;28;20364;-48
2022/08/16 10:45:50;;;;;;;5.05;2.75;;;27.70;86.60;;;;;;4959717;28;21546;-49
2022/08/16 10:48:17;;;;;;;5.03;2.90;;;27.50;85.30;;;;;;4957537;28;20383;-47
2022/08/16 10:50:44;;;;;;;6.35;4.10;;;27.70;86.40;;;;;;4962038;28;20039;-48
2022/08/16 10:53:10;;;;;;;5.50;3.50;;;27.70;88.20;;;;;;4960340;28;20061;-50
2022/08/16 10:55:38;;;;;;;6.60;3.53;;;28.10;85.80;;;;;;4963569;28;20026;-50
2022/08/16 10:58:06;;;;;;;7.75;3.40;;;28.00;87.00;;;;;;4960050;28;20122;-49
2022/08/16 11:00:33;;;;;;;7.30;4.15;;;28.00;83.50;;;;;;4962497;28;20035;-47
2022/08/16 11:03:00;;;;;;;5.97;3.00;;;28.00;87.10;;;;;;4962337;28;20070;-47
2022/08/16 11:05:27;;;;;;;8.15;5.57;;;28.10;86.60;;;;;;4963034;28;20462;-49
2022/08/16 11:07:53;;;;;;;12.55;7.05;;;28.10;89.70;;;;;;4961063;28;20039;-47
2022/08/16 11:10:25;;;;;;;5.57;4.53;;;28.30;90.30;;;;;;4964368;28;20419;-51
2022/08/16 11:12:51;;;;;;;9.65;4.03;;;28.50;89.90;;;;;;4961792;28;20133;-50
2022/08/16 11:15:17;;;;;;;8.90;5.82;;;28.40;87.30;;;;;;4961536;28;20130;-52
2022/08/16 11:17:43;;;;;;;7.35;5.85;;;28.60;89.00;;;;;;4943992;28;20038;-50
2022/08/16 11:20:09;;;;;;;9.13;5.47;;;28.60;90.10;;;;;;4962311;28;20086;-49
2022/08/16 11:22:36;;;;;;;13.88;6.90;;;28.90;90.50;;;;;;4960779;28;20114;-50
2022/08/16 11:25:02;;;;;;;11.18;6.03;;;28.60;90.10;;;;;;4943684;28;20105;-48
2022/08/16 11:27:28;;;;;;;7.03;4.72;;;29.10;90.40;;;;;;4944561;28;20054;-47
2022/08/16 11:29:56;;;;;;;9.27;5.30;;;29.00;88.40;;;;;;4958995;28;20047;-49
2022/08/16 11:32:24;;;;;;;11.32;6.80;;;29.10;89.30;;;;;;4959403;28;20036;-48
2022/08/16 11:34:50;;;;;;;6.63;5.13;;;29.20;90.00;;;;;;4954389;28;20039;-52
2022/08/16 11:37:15;;;;;;;9.40;5.50;;;29.20;87.80;;;;;;4957624;28;20105;-48
2022/08/16 11:39:42;;;;;;;8.50;5.25;;;29.20;88.70;;;;;;4956679;28;20102;-46
2022/08/16 11:42:07;;;;;;;9.45;4.47;;;29.20;88.20;;;;;;4952907;28;20043;-50
2022/08/16 11:44:33;;;;;;;6.65;4.82;;;29.40;87.10;;;;;;4953301;28;20035;-48
2022/08/16 11:46:59;;;;;;;9.98;6.45;;;29.40;85.00;;;;;;4971872;28;20050;-51
2022/08/16 11:49:25;;;;;;;11.85;6.78;;;29.50;88.10;;;;;;4952464;28;20035;-51
2022/08/16 11:51:50;;;;;;;10.23;5.28;;;29.50;87.60;;;;;;4972524;28;20042;-50
2022/08/16 11:54:16;;;;;;;9.30;5.53;;;29.80;87.30;;;;;;4972480;28;20034;-49
2022/08/16 11:56:42;;;;;;;8.18;4.95;;;29.80;85.10;;;;;;4954146;28;20079;-49
2022/08/16 11:59:08;;;;;;;10.13;4.75;;;29.60;85.20;;;;;;4942361;28;20070;-48
2022/08/16 12:01:34;;;;;;;6.38;4.30;;;30.00;85.30;;;;;;4953056;28;20101;-48
2022/08/16 12:04:00;;;;;;;8.27;4.35;;;30.10;85.50;;;;;;4953146;28;20376;-48
2022/08/16 12:06:26;;;;;;;6.50;4.80;;;30.00;84.80;;;;;;4959520;28;20078;-49
2022/08/16 12:08:57;;;;;;;6.60;4.03;;;29.80;82.70;;;;;;4972279;28;20035;-51
2022/08/16 12:11:25;;;;;;;6.53;4.97;;;29.60;83.60;;;;;;4965238;28;20156;-48
2022/08/16 12:13:52;;;;;;;9.80;5.63;;;29.30;84.40;;;;;;4952923;28;20396;-48
2022/08/16 12:16:19;;;;;;;10.35;5.60;;;29.30;84.30;;;;;;4938996;28;20058;-50
2022/08/16 12:18:45;;;;;;;6.32;5.07;;;29.50;85.60;;;;;;4971592;28;20064;-49
2022/08/16 12:21:11;;;;;;;8.70;5.10;;;29.90;85.40;;;;;;4967524;28;20055;-49
2022/08/16 12:23:37;;;;;;;11.07;5.63;;;29.90;85.30;;;;;;4963623;28;20054;-47
2022/08/16 12:26:02;;;;;;;8.93;5.68;;;29.70;82.90;;;;;;4957672;28;20403;-50
2022/08/16 12:28:30;;;;;;;7.88;6.22;;;29.70;84.80;;;;;;4952500;28;20390;-51
2022/08/16 12:30:56;;;;;;;8.40;6.72;;;29.30;84.60;;;;;;4971895;28;20051;-49